sensor_id;sensor_type;location;lat;lon;timestamp;P1;durP1;ratioP1;P2;durP2;ratioP2
72895;SDS011;61036;53.224;6.554;2023-08-21T00:02:22;7.13;;;3.60;;
72895;SDS011;61036;53.224;6.554;2023-08-21T00:04:47;7.97;;;4.43;;
72895;SDS011;61036;53.224;6.554;2023-08-21T00:07:13;8.23;;;3.87;;
72895;SDS011;61036;53.224;6.554;2023-08-21T00:09:38;9.47;;;3.80;;
72895;SDS011;61036;53.224;6.554;2023-08-21T00:12:04;10.70;;;4.03;;
72895;SDS011;61036;53.224;6.554;2023-08-21T00:14:31;11.10;;;4.87;;
72895;SDS011;61036;53.224;6.554;2023-08-21T00:16:56;10.07;;;4.17;;
72895;SDS011;61036;53.224;6.554;2023-08-21T00:19:22;8.50;;;4.13;;
72895;SDS011;61036;53.224;6.554;2023-08-21T00:21:47;9.17;;;3.67;;
72895;SDS011;61036;53.224;6.554;2023-08-21T00:24:12;10.73;;;3.93;;
72895;SDS011;61036;53.224;6.554;2023-08-21T00:26:38;9.17;;;4.20;;
72895;SDS011;61036;53.224;6.554;2023-08-21T00:29:03;7.93;;;3.43;;
72895;SDS011;61036;53.224;6.554;2023-08-21T00:31:31;8.30;;;3.47;;
72895;SDS011;61036;53.224;6.554;2023-08-21T00:33:56;8.03;;;3.53;;
72895;SDS011;61036;53.224;6.554;2023-08-21T00:36:22;9.07;;;4.10;;
72895;SDS011;61036;53.224;6.554;2023-08-21T00:38:48;8.83;;;3.10;;
72895;SDS011;61036;53.224;6.554;2023-08-21T00:41:13;9.70;;;3.80;;
72895;SDS011;61036;53.224;6.554;2023-08-21T00:43:39;11.63;;;3.77;;
72895;SDS011;61036;53.224;6.554;2023-08-21T00:46:05;8.43;;;3.23;;
72895;SDS011;61036;53.224;6.554;2023-08-21T00:48:31;7.80;;;3.50;;
72895;SDS011;61036;53.224;6.554;2023-08-21T00:50:57;9.80;;;3.80;;
72895;SDS011;61036;53.224;6.554;2023-08-21T00:53:23;8.40;;;3.60;;
72895;SDS011;61036;53.224;6.554;2023-08-21T00:55:51;6.63;;;3.57;;
72895;SDS011;61036;53.224;6.554;2023-08-21T00:58:16;8.80;;;3.63;;
72895;SDS011;61036;53.224;6.554;2023-08-21T01:00:44;10.00;;;3.50;;
72895;SDS011;61036;53.224;6.554;2023-08-21T01:03:12;10.20;;;3.83;;
72895;SDS011;61036;53.224;6.554;2023-08-21T01:05:38;10.93;;;3.60;;
72895;SDS011;61036;53.224;6.554;2023-08-21T01:11:21;10.83;;;4.23;;
72895;SDS011;61036;53.224;6.554;2023-08-21T01:16:44;8.23;;;4.10;;
72895;SDS011;61036;53.224;6.554;2023-08-21T01:19:31;11.00;;;4.17;;
72895;SDS011;61036;53.224;6.554;2023-08-21T01:22:07;7.63;;;3.70;;
72895;SDS011;61036;53.224;6.554;2023-08-21T01:24:34;8.00;;;3.73;;
72895;SDS011;61036;53.224;6.554;2023-08-21T01:27:00;5.87;;;3.60;;
72895;SDS011;61036;53.224;6.554;2023-08-21T01:29:26;9.03;;;4.07;;
72895;SDS011;61036;53.224;6.554;2023-08-21T01:34:35;9.30;;;3.83;;
72895;SDS011;61036;53.224;6.554;2023-08-21T01:37:03;6.90;;;3.63;;
72895;SDS011;61036;53.224;6.554;2023-08-21T01:39:30;7.63;;;3.97;;
72895;SDS011;61036;53.224;6.554;2023-08-21T01:41:57;8.73;;;3.33;;
72895;SDS011;61036;53.224;6.554;2023-08-21T01:44:23;9.43;;;4.00;;
72895;SDS011;61036;53.224;6.554;2023-08-21T01:46:49;8.40;;;3.80;;
72895;SDS011;61036;53.224;6.554;2023-08-21T01:49:14;8.17;;;3.07;;
72895;SDS011;61036;53.224;6.554;2023-08-21T01:51:40;6.70;;;3.50;;
72895;SDS011;61036;53.224;6.554;2023-08-21T01:54:05;8.20;;;4.00;;
72895;SDS011;61036;53.224;6.554;2023-08-21T01:56:31;8.57;;;3.83;;
72895;SDS011;61036;53.224;6.554;2023-08-21T01:58:57;7.23;;;3.33;;
72895;SDS011;61036;53.224;6.554;2023-08-21T02:01:23;7.97;;;3.20;;
72895;SDS011;61036;53.224;6.554;2023-08-21T02:03:48;7.27;;;3.27;;
72895;SDS011;61036;53.224;6.554;2023-08-21T02:06:14;8.50;;;3.50;;
72895;SDS011;61036;53.224;6.554;2023-08-21T02:08:40;8.43;;;3.63;;
72895;SDS011;61036;53.224;6.554;2023-08-21T02:11:06;6.77;;;3.80;;
72895;SDS011;61036;53.224;6.554;2023-08-21T02:13:31;5.00;;;2.67;;
72895;SDS011;61036;53.224;6.554;2023-08-21T02:15:58;10.27;;;4.17;;
72895;SDS011;61036;53.224;6.554;2023-08-21T02:18:23;9.23;;;3.87;;
72895;SDS011;61036;53.224;6.554;2023-08-21T02:20:49;7.93;;;3.53;;
72895;SDS011;61036;53.224;6.554;2023-08-21T02:23:15;5.60;;;3.37;;
72895;SDS011;61036;53.224;6.554;2023-08-21T02:25:41;9.43;;;3.17;;
72895;SDS011;61036;53.224;6.554;2023-08-21T02:28:07;7.40;;;3.80;;
72895;SDS011;61036;53.224;6.554;2023-08-21T02:30:32;8.50;;;3.40;;
72895;SDS011;61036;53.224;6.554;2023-08-21T02:32:58;9.27;;;3.70;;
72895;SDS011;61036;53.224;6.554;2023-08-21T02:35:24;7.30;;;3.60;;
72895;SDS011;61036;53.224;6.554;2023-08-21T02:37:50;8.60;;;4.00;;
72895;SDS011;61036;53.224;6.554;2023-08-21T02:40:15;6.10;;;3.60;;
72895;SDS011;61036;53.224;6.554;2023-08-21T02:42:41;8.67;;;3.57;;
72895;SDS011;61036;53.224;6.554;2023-08-21T02:45:07;7.00;;;3.50;;
72895;SDS011;61036;53.224;6.554;2023-08-21T02:47:38;6.67;;;3.60;;
72895;SDS011;61036;53.224;6.554;2023-08-21T02:50:05;7.53;;;3.80;;
72895;SDS011;61036;53.224;6.554;2023-08-21T02:52:32;10.13;;;3.80;;
72895;SDS011;61036;53.224;6.554;2023-08-21T02:54:59;11.30;;;3.90;;
72895;SDS011;61036;53.224;6.554;2023-08-21T02:57:25;9.93;;;3.83;;
72895;SDS011;61036;53.224;6.554;2023-08-21T02:59:52;9.17;;;4.50;;
72895;SDS011;61036;53.224;6.554;2023-08-21T03:02:18;8.37;;;3.87;;
72895;SDS011;61036;53.224;6.554;2023-08-21T03:04:44;8.53;;;4.37;;
72895;SDS011;61036;53.224;6.554;2023-08-21T03:07:10;9.77;;;3.97;;
72895;SDS011;61036;53.224;6.554;2023-08-21T03:09:36;6.73;;;3.90;;
72895;SDS011;61036;53.224;6.554;2023-08-21T03:12:02;7.23;;;3.77;;
72895;SDS011;61036;53.224;6.554;2023-08-21T03:14:28;9.23;;;3.47;;
72895;SDS011;61036;53.224;6.554;2023-08-21T03:16:54;7.83;;;3.67;;
72895;SDS011;61036;53.224;6.554;2023-08-21T03:19:19;7.17;;;3.53;;
72895;SDS011;61036;53.224;6.554;2023-08-21T03:21:45;7.60;;;3.40;;
72895;SDS011;61036;53.224;6.554;2023-08-21T03:24:10;8.83;;;3.83;;
72895;SDS011;61036;53.224;6.554;2023-08-21T03:26:36;5.83;;;3.33;;
72895;SDS011;61036;53.224;6.554;2023-08-21T03:29:01;8.53;;;4.10;;
72895;SDS011;61036;53.224;6.554;2023-08-21T03:31:27;6.57;;;3.30;;
72895;SDS011;61036;53.224;6.554;2023-08-21T03:33:53;9.47;;;3.70;;
72895;SDS011;61036;53.224;6.554;2023-08-21T03:36:20;7.93;;;3.60;;
72895;SDS011;61036;53.224;6.554;2023-08-21T03:38:46;7.00;;;3.60;;
72895;SDS011;61036;53.224;6.554;2023-08-21T03:41:12;7.87;;;3.67;;
72895;SDS011;61036;53.224;6.554;2023-08-21T03:43:38;8.37;;;3.67;;
72895;SDS011;61036;53.224;6.554;2023-08-21T03:46:03;9.77;;;3.80;;
72895;SDS011;61036;53.224;6.554;2023-08-21T03:48:29;6.87;;;3.30;;
72895;SDS011;61036;53.224;6.554;2023-08-21T03:50:55;8.23;;;3.60;;
72895;SDS011;61036;53.224;6.554;2023-08-21T03:53:20;7.17;;;3.50;;
72895;SDS011;61036;53.224;6.554;2023-08-21T03:55:46;8.83;;;3.87;;
72895;SDS011;61036;53.224;6.554;2023-08-21T03:58:11;6.80;;;3.53;;
72895;SDS011;61036;53.224;6.554;2023-08-21T04:00:38;5.83;;;3.10;;
72895;SDS011;61036;53.224;6.554;2023-08-21T04:03:05;6.27;;;3.10;;
72895;SDS011;61036;53.224;6.554;2023-08-21T04:05:30;9.27;;;3.77;;
72895;SDS011;61036;53.224;6.554;2023-08-21T04:07:56;7.73;;;3.87;;
72895;SDS011;61036;53.224;6.554;2023-08-21T04:10:21;8.30;;;4.23;;
72895;SDS011;61036;53.224;6.554;2023-08-21T04:12:47;6.10;;;3.33;;
72895;SDS011;61036;53.224;6.554;2023-08-21T04:15:12;8.77;;;3.43;;
72895;SDS011;61036;53.224;6.554;2023-08-21T04:17:38;8.30;;;3.67;;
72895;SDS011;61036;53.224;6.554;2023-08-21T04:20:04;7.30;;;3.83;;
72895;SDS011;61036;53.224;6.554;2023-08-21T04:22:30;8.17;;;3.50;;
72895;SDS011;61036;53.224;6.554;2023-08-21T04:24:55;11.87;;;4.63;;
72895;SDS011;61036;53.224;6.554;2023-08-21T04:27:21;8.93;;;3.87;;
72895;SDS011;61036;53.224;6.554;2023-08-21T04:29:46;7.37;;;4.13;;
72895;SDS011;61036;53.224;6.554;2023-08-21T04:32:12;9.27;;;4.40;;
72895;SDS011;61036;53.224;6.554;2023-08-21T04:34:38;9.83;;;4.60;;
72895;SDS011;61036;53.224;6.554;2023-08-21T04:37:04;9.73;;;4.33;;
72895;SDS011;61036;53.224;6.554;2023-08-21T04:39:30;7.13;;;3.70;;
72895;SDS011;61036;53.224;6.554;2023-08-21T04:41:56;7.13;;;4.00;;
72895;SDS011;61036;53.224;6.554;2023-08-21T04:44:22;9.47;;;4.43;;
72895;SDS011;61036;53.224;6.554;2023-08-21T04:46:48;8.43;;;4.10;;
72895;SDS011;61036;53.224;6.554;2023-08-21T04:49:15;11.13;;;4.70;;
72895;SDS011;61036;53.224;6.554;2023-08-21T04:51:41;8.00;;;4.10;;
72895;SDS011;61036;53.224;6.554;2023-08-21T04:54:07;9.33;;;4.30;;
72895;SDS011;61036;53.224;6.554;2023-08-21T04:56:32;9.83;;;4.70;;
72895;SDS011;61036;53.224;6.554;2023-08-21T04:58:58;7.70;;;3.57;;
72895;SDS011;61036;53.224;6.554;2023-08-21T05:01:25;11.07;;;4.50;;
72895;SDS011;61036;53.224;6.554;2023-08-21T05:03:51;7.00;;;3.80;;
72895;SDS011;61036;53.224;6.554;2023-08-21T05:06:18;7.57;;;3.33;;
72895;SDS011;61036;53.224;6.554;2023-08-21T05:08:43;10.43;;;4.00;;
72895;SDS011;61036;53.224;6.554;2023-08-21T05:11:10;7.77;;;3.43;;
72895;SDS011;61036;53.224;6.554;2023-08-21T05:13:37;6.33;;;3.33;;
72895;SDS011;61036;53.224;6.554;2023-08-21T05:16:05;6.43;;;3.77;;
72895;SDS011;61036;53.224;6.554;2023-08-21T05:18:34;8.00;;;3.53;;
72895;SDS011;61036;53.224;6.554;2023-08-21T05:21:00;7.80;;;3.73;;
72895;SDS011;61036;53.224;6.554;2023-08-21T05:23:26;7.30;;;3.33;;
72895;SDS011;61036;53.224;6.554;2023-08-21T05:25:56;9.83;;;3.37;;
72895;SDS011;61036;53.224;6.554;2023-08-21T05:28:22;9.97;;;3.70;;
72895;SDS011;61036;53.224;6.554;2023-08-21T05:30:47;9.37;;;3.20;;
72895;SDS011;61036;53.224;6.554;2023-08-21T05:33:14;8.00;;;3.43;;
72895;SDS011;61036;53.224;6.554;2023-08-21T05:35:41;8.17;;;3.43;;
72895;SDS011;61036;53.224;6.554;2023-08-21T05:38:06;7.73;;;3.10;;
72895;SDS011;61036;53.224;6.554;2023-08-21T05:40:34;8.67;;;3.27;;
72895;SDS011;61036;53.224;6.554;2023-08-21T05:43:00;9.20;;;3.37;;
72895;SDS011;61036;53.224;6.554;2023-08-21T05:45:26;7.80;;;2.97;;
72895;SDS011;61036;53.224;6.554;2023-08-21T05:47:52;6.47;;;2.60;;
72895;SDS011;61036;53.224;6.554;2023-08-21T05:50:17;7.77;;;3.10;;
72895;SDS011;61036;53.224;6.554;2023-08-21T05:52:42;8.70;;;2.90;;
72895;SDS011;61036;53.224;6.554;2023-08-21T05:55:09;8.30;;;2.30;;
72895;SDS011;61036;53.224;6.554;2023-08-21T05:57:34;6.73;;;2.80;;
72895;SDS011;61036;53.224;6.554;2023-08-21T06:00:00;7.33;;;2.53;;
72895;SDS011;61036;53.224;6.554;2023-08-21T06:02:28;7.67;;;2.90;;
72895;SDS011;61036;53.224;6.554;2023-08-21T06:04:54;7.20;;;2.63;;
72895;SDS011;61036;53.224;6.554;2023-08-21T06:07:22;7.53;;;3.10;;
72895;SDS011;61036;53.224;6.554;2023-08-21T06:09:47;9.00;;;2.80;;
72895;SDS011;61036;53.224;6.554;2023-08-21T06:12:13;5.57;;;2.63;;
72895;SDS011;61036;53.224;6.554;2023-08-21T06:14:40;7.80;;;2.50;;
72895;SDS011;61036;53.224;6.554;2023-08-21T06:17:08;6.83;;;2.60;;
72895;SDS011;61036;53.224;6.554;2023-08-21T06:19:34;6.33;;;2.70;;
72895;SDS011;61036;53.224;6.554;2023-08-21T06:22:03;8.77;;;2.30;;
72895;SDS011;61036;53.224;6.554;2023-08-21T06:24:28;8.03;;;2.70;;
72895;SDS011;61036;53.224;6.554;2023-08-21T06:26:59;6.47;;;2.50;;
72895;SDS011;61036;53.224;6.554;2023-08-21T06:29:24;5.13;;;2.03;;
72895;SDS011;61036;53.224;6.554;2023-08-21T06:31:50;7.83;;;2.13;;
72895;SDS011;61036;53.224;6.554;2023-08-21T06:34:15;7.97;;;2.03;;
72895;SDS011;61036;53.224;6.554;2023-08-21T06:36:41;5.87;;;1.97;;
72895;SDS011;61036;53.224;6.554;2023-08-21T06:39:07;5.37;;;2.27;;
72895;SDS011;61036;53.224;6.554;2023-08-21T06:41:32;8.10;;;2.73;;
72895;SDS011;61036;53.224;6.554;2023-08-21T06:43:58;6.43;;;2.20;;
72895;SDS011;61036;53.224;6.554;2023-08-21T06:46:23;8.13;;;2.90;;
72895;SDS011;61036;53.224;6.554;2023-08-21T06:48:49;6.97;;;2.10;;
72895;SDS011;61036;53.224;6.554;2023-08-21T06:51:15;7.27;;;2.20;;
72895;SDS011;61036;53.224;6.554;2023-08-21T06:53:41;8.70;;;2.20;;
72895;SDS011;61036;53.224;6.554;2023-08-21T06:56:07;4.67;;;1.87;;
72895;SDS011;61036;53.224;6.554;2023-08-21T06:58:32;6.03;;;2.00;;
72895;SDS011;61036;53.224;6.554;2023-08-21T07:00:59;6.23;;;1.93;;
72895;SDS011;61036;53.224;6.554;2023-08-21T07:03:25;6.10;;;1.77;;
72895;SDS011;61036;53.224;6.554;2023-08-21T07:05:54;5.60;;;1.77;;
72895;SDS011;61036;53.224;6.554;2023-08-21T07:08:21;5.97;;;1.40;;
72895;SDS011;61036;53.224;6.554;2023-08-21T07:10:47;6.23;;;1.77;;
72895;SDS011;61036;53.224;6.554;2023-08-21T07:13:13;5.93;;;1.60;;
72895;SDS011;61036;53.224;6.554;2023-08-21T07:15:38;5.87;;;1.47;;
72895;SDS011;61036;53.224;6.554;2023-08-21T07:18:04;3.40;;;1.40;;
72895;SDS011;61036;53.224;6.554;2023-08-21T07:20:29;7.60;;;1.50;;
72895;SDS011;61036;53.224;6.554;2023-08-21T07:22:55;5.87;;;1.60;;
72895;SDS011;61036;53.224;6.554;2023-08-21T07:25:20;6.00;;;1.40;;
72895;SDS011;61036;53.224;6.554;2023-08-21T07:27:46;5.90;;;1.50;;
72895;SDS011;61036;53.224;6.554;2023-08-21T07:30:11;5.70;;;1.60;;
72895;SDS011;61036;53.224;6.554;2023-08-21T07:32:37;4.33;;;1.53;;
72895;SDS011;61036;53.224;6.554;2023-08-21T07:35:03;3.70;;;1.47;;
72895;SDS011;61036;53.224;6.554;2023-08-21T07:37:28;4.10;;;1.70;;
72895;SDS011;61036;53.224;6.554;2023-08-21T07:39:54;6.50;;;1.70;;
72895;SDS011;61036;53.224;6.554;2023-08-21T07:42:22;3.70;;;1.30;;
72895;SDS011;61036;53.224;6.554;2023-08-21T07:44:48;4.50;;;1.53;;
72895;SDS011;61036;53.224;6.554;2023-08-21T07:47:14;4.03;;;1.43;;
72895;SDS011;61036;53.224;6.554;2023-08-21T07:49:39;3.93;;;1.30;;
72895;SDS011;61036;53.224;6.554;2023-08-21T07:52:05;7.00;;;1.93;;
72895;SDS011;61036;53.224;6.554;2023-08-21T07:54:30;5.63;;;1.67;;
72895;SDS011;61036;53.224;6.554;2023-08-21T07:56:56;4.43;;;1.50;;
72895;SDS011;61036;53.224;6.554;2023-08-21T07:59:21;4.37;;;1.40;;
72895;SDS011;61036;53.224;6.554;2023-08-21T08:01:47;4.33;;;1.53;;
72895;SDS011;61036;53.224;6.554;2023-08-21T08:04:12;4.27;;;1.40;;
72895;SDS011;61036;53.224;6.554;2023-08-21T08:06:38;4.17;;;1.43;;
72895;SDS011;61036;53.224;6.554;2023-08-21T08:09:04;5.80;;;1.70;;
72895;SDS011;61036;53.224;6.554;2023-08-21T08:11:29;4.47;;;1.40;;
72895;SDS011;61036;53.224;6.554;2023-08-21T08:13:55;4.80;;;1.57;;
72895;SDS011;61036;53.224;6.554;2023-08-21T08:16:21;5.13;;;1.53;;
72895;SDS011;61036;53.224;6.554;2023-08-21T08:18:46;6.53;;;1.70;;
72895;SDS011;61036;53.224;6.554;2023-08-21T08:21:12;4.23;;;1.30;;
72895;SDS011;61036;53.224;6.554;2023-08-21T08:23:38;4.63;;;1.43;;
72895;SDS011;61036;53.224;6.554;2023-08-21T08:26:03;3.80;;;1.50;;
72895;SDS011;61036;53.224;6.554;2023-08-21T08:28:29;4.37;;;1.40;;
72895;SDS011;61036;53.224;6.554;2023-08-21T08:30:54;3.57;;;1.40;;
72895;SDS011;61036;53.224;6.554;2023-08-21T08:33:20;3.93;;;1.57;;
72895;SDS011;61036;53.224;6.554;2023-08-21T08:35:45;4.07;;;1.60;;
72895;SDS011;61036;53.224;6.554;2023-08-21T08:38:11;4.07;;;1.40;;
72895;SDS011;61036;53.224;6.554;2023-08-21T08:40:37;8.47;;;1.97;;
72895;SDS011;61036;53.224;6.554;2023-08-21T08:43:10;4.73;;;1.30;;
72895;SDS011;61036;53.224;6.554;2023-08-21T08:45:36;5.90;;;1.80;;
72895;SDS011;61036;53.224;6.554;2023-08-21T08:48:03;4.60;;;1.60;;
72895;SDS011;61036;53.224;6.554;2023-08-21T08:50:30;2.73;;;1.27;;
72895;SDS011;61036;53.224;6.554;2023-08-21T08:52:57;4.43;;;1.73;;
72895;SDS011;61036;53.224;6.554;2023-08-21T08:55:24;4.70;;;1.80;;
72895;SDS011;61036;53.224;6.554;2023-08-21T08:57:50;4.03;;;1.40;;
72895;SDS011;61036;53.224;6.554;2023-08-21T09:00:16;4.70;;;1.57;;
72895;SDS011;61036;53.224;6.554;2023-08-21T09:02:42;3.17;;;1.43;;
72895;SDS011;61036;53.224;6.554;2023-08-21T09:05:08;6.43;;;1.80;;
72895;SDS011;61036;53.224;6.554;2023-08-21T09:07:34;3.57;;;1.50;;
72895;SDS011;61036;53.224;6.554;2023-08-21T09:10:00;4.20;;;1.60;;
72895;SDS011;61036;53.224;6.554;2023-08-21T09:12:26;5.23;;;1.80;;
72895;SDS011;61036;53.224;6.554;2023-08-21T09:14:51;6.50;;;1.83;;
72895;SDS011;61036;53.224;6.554;2023-08-21T09:17:17;4.67;;;1.70;;
72895;SDS011;61036;53.224;6.554;2023-08-21T09:19:43;3.27;;;1.30;;
72895;SDS011;61036;53.224;6.554;2023-08-21T09:22:15;5.33;;;1.50;;
72895;SDS011;61036;53.224;6.554;2023-08-21T09:25:03;5.73;;;1.43;;
72895;SDS011;61036;53.224;6.554;2023-08-21T09:27:37;3.47;;;1.60;;
72895;SDS011;61036;53.224;6.554;2023-08-21T09:30:04;4.30;;;1.60;;
72895;SDS011;61036;53.224;6.554;2023-08-21T09:32:32;4.90;;;1.43;;
72895;SDS011;61036;53.224;6.554;2023-08-21T09:35:23;4.10;;;1.60;;
72895;SDS011;61036;53.224;6.554;2023-08-21T09:37:49;3.30;;;1.27;;
72895;SDS011;61036;53.224;6.554;2023-08-21T09:40:18;4.77;;;1.60;;
72895;SDS011;61036;53.224;6.554;2023-08-21T09:42:43;6.83;;;1.63;;
72895;SDS011;61036;53.224;6.554;2023-08-21T09:45:09;4.83;;;2.00;;
72895;SDS011;61036;53.224;6.554;2023-08-21T09:47:35;4.53;;;1.60;;
72895;SDS011;61036;53.224;6.554;2023-08-21T09:50:03;3.20;;;1.37;;
72895;SDS011;61036;53.224;6.554;2023-08-21T09:52:29;4.20;;;1.43;;
72895;SDS011;61036;53.224;6.554;2023-08-21T09:54:56;4.13;;;1.83;;
72895;SDS011;61036;53.224;6.554;2023-08-21T09:57:23;5.50;;;1.87;;
72895;SDS011;61036;53.224;6.554;2023-08-21T09:59:52;4.63;;;1.70;;
72895;SDS011;61036;53.224;6.554;2023-08-21T10:02:19;4.80;;;1.70;;
72895;SDS011;61036;53.224;6.554;2023-08-21T10:04:46;3.33;;;1.40;;
72895;SDS011;61036;53.224;6.554;2023-08-21T10:07:13;3.87;;;1.30;;
72895;SDS011;61036;53.224;6.554;2023-08-21T10:09:42;3.77;;;1.40;;
72895;SDS011;61036;53.224;6.554;2023-08-21T10:12:08;5.37;;;1.57;;
72895;SDS011;61036;53.224;6.554;2023-08-21T10:14:35;4.43;;;1.40;;
72895;SDS011;61036;53.224;6.554;2023-08-21T10:17:01;4.43;;;1.73;;
72895;SDS011;61036;53.224;6.554;2023-08-21T10:19:30;5.23;;;2.03;;
72895;SDS011;61036;53.224;6.554;2023-08-21T10:21:57;6.53;;;1.77;;
72895;SDS011;61036;53.224;6.554;2023-08-21T10:24:27;4.60;;;1.57;;
72895;SDS011;61036;53.224;6.554;2023-08-21T10:27:03;4.53;;;1.60;;
72895;SDS011;61036;53.224;6.554;2023-08-21T10:29:29;6.70;;;1.80;;
72895;SDS011;61036;53.224;6.554;2023-08-21T10:31:59;5.53;;;2.13;;
72895;SDS011;61036;53.224;6.554;2023-08-21T10:34:35;3.80;;;1.80;;
72895;SDS011;61036;53.224;6.554;2023-08-21T10:39:34;5.90;;;1.83;;
72895;SDS011;61036;53.224;6.554;2023-08-21T10:42:09;4.17;;;1.70;;
72895;SDS011;61036;53.224;6.554;2023-08-21T10:44:53;4.47;;;1.70;;
72895;SDS011;61036;53.224;6.554;2023-08-21T10:49:54;5.33;;;2.07;;
72895;SDS011;61036;53.224;6.554;2023-08-21T10:52:25;5.63;;;2.40;;
72895;SDS011;61036;53.224;6.554;2023-08-21T10:55:01;3.97;;;1.83;;
72895;SDS011;61036;53.224;6.554;2023-08-21T10:57:29;5.17;;;1.73;;
72895;SDS011;61036;53.224;6.554;2023-08-21T11:02:35;3.50;;;1.60;;
72895;SDS011;61036;53.224;6.554;2023-08-21T11:05:02;4.40;;;1.80;;
72895;SDS011;61036;53.224;6.554;2023-08-21T11:07:28;5.10;;;1.97;;
72895;SDS011;61036;53.224;6.554;2023-08-21T11:09:54;4.90;;;2.10;;
72895;SDS011;61036;53.224;6.554;2023-08-21T11:12:21;4.53;;;1.70;;
72895;SDS011;61036;53.224;6.554;2023-08-21T11:14:49;4.83;;;1.63;;
72895;SDS011;61036;53.224;6.554;2023-08-21T11:17:14;4.93;;;1.70;;
72895;SDS011;61036;53.224;6.554;2023-08-21T11:19:42;4.63;;;1.57;;
72895;SDS011;61036;53.224;6.554;2023-08-21T11:22:08;2.90;;;1.40;;
72895;SDS011;61036;53.224;6.554;2023-08-21T11:27:09;6.10;;;1.90;;
72895;SDS011;61036;53.224;6.554;2023-08-21T11:29:36;3.63;;;1.80;;
72895;SDS011;61036;53.224;6.554;2023-08-21T11:32:13;3.13;;;2.00;;
72895;SDS011;61036;53.224;6.554;2023-08-21T11:34:41;6.03;;;2.00;;
72895;SDS011;61036;53.224;6.554;2023-08-21T11:37:09;4.17;;;1.80;;
72895;SDS011;61036;53.224;6.554;2023-08-21T11:39:42;4.60;;;2.00;;
72895;SDS011;61036;53.224;6.554;2023-08-21T11:42:09;6.50;;;1.97;;
72895;SDS011;61036;53.224;6.554;2023-08-21T11:44:44;6.37;;;1.83;;
72895;SDS011;61036;53.224;6.554;2023-08-21T11:47:11;3.90;;;2.00;;
72895;SDS011;61036;53.224;6.554;2023-08-21T11:49:38;5.07;;;2.00;;
72895;SDS011;61036;53.224;6.554;2023-08-21T11:52:06;4.40;;;1.97;;
72895;SDS011;61036;53.224;6.554;2023-08-21T11:54:38;4.90;;;2.47;;
72895;SDS011;61036;53.224;6.554;2023-08-21T11:57:08;7.17;;;2.00;;
72895;SDS011;61036;53.224;6.554;2023-08-21T11:59:37;5.27;;;2.80;;
72895;SDS011;61036;53.224;6.554;2023-08-21T12:02:07;7.17;;;1.90;;
72895;SDS011;61036;53.224;6.554;2023-08-21T12:04:35;4.57;;;1.87;;
72895;SDS011;61036;53.224;6.554;2023-08-21T12:07:00;5.90;;;2.00;;
72895;SDS011;61036;53.224;6.554;2023-08-21T12:09:26;6.80;;;1.80;;
72895;SDS011;61036;53.224;6.554;2023-08-21T12:11:52;5.30;;;1.63;;
72895;SDS011;61036;53.224;6.554;2023-08-21T12:14:17;9.00;;;2.30;;
72895;SDS011;61036;53.224;6.554;2023-08-21T12:16:46;3.57;;;1.80;;
72895;SDS011;61036;53.224;6.554;2023-08-21T12:19:11;6.30;;;2.00;;
72895;SDS011;61036;53.224;6.554;2023-08-21T12:21:37;5.83;;;1.73;;
72895;SDS011;61036;53.224;6.554;2023-08-21T12:24:04;4.57;;;1.70;;
72895;SDS011;61036;53.224;6.554;2023-08-21T12:26:31;6.10;;;2.20;;
72895;SDS011;61036;53.224;6.554;2023-08-21T12:28:56;5.50;;;2.60;;
72895;SDS011;61036;53.224;6.554;2023-08-21T12:31:22;5.80;;;2.20;;
72895;SDS011;61036;53.224;6.554;2023-08-21T12:33:47;4.57;;;2.33;;
72895;SDS011;61036;53.224;6.554;2023-08-21T12:36:13;5.13;;;1.90;;
72895;SDS011;61036;53.224;6.554;2023-08-21T12:38:38;4.77;;;2.00;;
72895;SDS011;61036;53.224;6.554;2023-08-21T12:41:04;5.27;;;2.30;;
72895;SDS011;61036;53.224;6.554;2023-08-21T12:43:30;4.40;;;2.10;;
72895;SDS011;61036;53.224;6.554;2023-08-21T12:45:56;5.50;;;2.13;;
72895;SDS011;61036;53.224;6.554;2023-08-21T12:48:22;5.73;;;2.30;;
72895;SDS011;61036;53.224;6.554;2023-08-21T12:50:47;6.23;;;2.20;;
72895;SDS011;61036;53.224;6.554;2023-08-21T12:53:14;4.43;;;1.80;;
72895;SDS011;61036;53.224;6.554;2023-08-21T12:55:40;5.97;;;2.17;;
72895;SDS011;61036;53.224;6.554;2023-08-21T12:58:05;5.90;;;1.90;;
72895;SDS011;61036;53.224;6.554;2023-08-21T13:00:31;5.53;;;1.93;;
72895;SDS011;61036;53.224;6.554;2023-08-21T13:02:57;6.00;;;2.00;;
72895;SDS011;61036;53.224;6.554;2023-08-21T13:05:23;4.50;;;1.70;;
72895;SDS011;61036;53.224;6.554;2023-08-21T13:07:48;3.60;;;1.63;;
72895;SDS011;61036;53.224;6.554;2023-08-21T13:10:14;9.10;;;4.10;;
72895;SDS011;61036;53.224;6.554;2023-08-21T13:12:39;4.83;;;2.00;;
72895;SDS011;61036;53.224;6.554;2023-08-21T13:15:05;3.80;;;1.70;;
72895;SDS011;61036;53.224;6.554;2023-08-21T13:17:33;4.70;;;1.70;;
72895;SDS011;61036;53.224;6.554;2023-08-21T13:19:59;4.53;;;1.50;;
72895;SDS011;61036;53.224;6.554;2023-08-21T13:22:24;5.43;;;1.70;;
72895;SDS011;61036;53.224;6.554;2023-08-21T13:24:50;5.47;;;2.10;;
72895;SDS011;61036;53.224;6.554;2023-08-21T13:27:15;4.97;;;1.77;;
72895;SDS011;61036;53.224;6.554;2023-08-21T13:29:41;3.53;;;1.40;;
72895;SDS011;61036;53.224;6.554;2023-08-21T13:32:06;5.23;;;1.60;;
72895;SDS011;61036;53.224;6.554;2023-08-21T13:34:32;4.77;;;1.60;;
72895;SDS011;61036;53.224;6.554;2023-08-21T13:36:58;5.93;;;1.77;;
72895;SDS011;61036;53.224;6.554;2023-08-21T13:39:23;4.93;;;1.50;;
72895;SDS011;61036;53.224;6.554;2023-08-21T13:41:50;3.43;;;1.20;;
72895;SDS011;61036;53.224;6.554;2023-08-21T13:44:15;5.77;;;1.80;;
72895;SDS011;61036;53.224;6.554;2023-08-21T13:46:41;4.10;;;1.57;;
72895;SDS011;61036;53.224;6.554;2023-08-21T13:49:06;4.90;;;1.63;;
72895;SDS011;61036;53.224;6.554;2023-08-21T13:51:32;3.27;;;1.40;;
72895;SDS011;61036;53.224;6.554;2023-08-21T13:53:58;5.43;;;1.37;;
72895;SDS011;61036;53.224;6.554;2023-08-21T13:56:23;5.43;;;1.80;;
72895;SDS011;61036;53.224;6.554;2023-08-21T13:58:49;4.57;;;1.30;;
72895;SDS011;61036;53.224;6.554;2023-08-21T14:01:14;3.23;;;1.27;;
72895;SDS011;61036;53.224;6.554;2023-08-21T14:03:40;3.30;;;1.53;;
72895;SDS011;61036;53.224;6.554;2023-08-21T14:06:06;4.23;;;1.57;;
72895;SDS011;61036;53.224;6.554;2023-08-21T14:08:35;3.63;;;1.10;;
72895;SDS011;61036;53.224;6.554;2023-08-21T14:11:01;4.70;;;1.23;;
72895;SDS011;61036;53.224;6.554;2023-08-21T14:13:26;3.17;;;1.30;;
72895;SDS011;61036;53.224;6.554;2023-08-21T14:15:52;3.43;;;1.23;;
72895;SDS011;61036;53.224;6.554;2023-08-21T14:18:17;6.50;;;1.50;;
72895;SDS011;61036;53.224;6.554;2023-08-21T14:20:43;2.40;;;1.07;;
72895;SDS011;61036;53.224;6.554;2023-08-21T14:23:09;3.07;;;1.13;;
72895;SDS011;61036;53.224;6.554;2023-08-21T14:25:34;3.57;;;1.43;;
72895;SDS011;61036;53.224;6.554;2023-08-21T14:28:00;4.40;;;1.40;;
72895;SDS011;61036;53.224;6.554;2023-08-21T14:30:25;3.13;;;1.17;;
72895;SDS011;61036;53.224;6.554;2023-08-21T14:32:51;5.30;;;1.50;;
72895;SDS011;61036;53.224;6.554;2023-08-21T14:35:16;3.23;;;1.23;;
72895;SDS011;61036;53.224;6.554;2023-08-21T14:37:42;3.57;;;1.40;;
72895;SDS011;61036;53.224;6.554;2023-08-21T14:40:07;3.77;;;1.30;;
72895;SDS011;61036;53.224;6.554;2023-08-21T14:42:35;4.23;;;1.43;;
72895;SDS011;61036;53.224;6.554;2023-08-21T14:45:01;3.77;;;1.43;;
72895;SDS011;61036;53.224;6.554;2023-08-21T14:47:28;3.87;;;1.30;;
72895;SDS011;61036;53.224;6.554;2023-08-21T14:49:54;5.80;;;1.37;;
72895;SDS011;61036;53.224;6.554;2023-08-21T14:52:20;3.07;;;1.43;;
72895;SDS011;61036;53.224;6.554;2023-08-21T14:54:48;4.03;;;1.40;;
72895;SDS011;61036;53.224;6.554;2023-08-21T14:57:13;9.87;;;1.67;;
72895;SDS011;61036;53.224;6.554;2023-08-21T14:59:39;5.23;;;1.23;;
72895;SDS011;61036;53.224;6.554;2023-08-21T15:02:04;4.13;;;1.30;;
72895;SDS011;61036;53.224;6.554;2023-08-21T15:04:30;3.93;;;1.43;;